Time;durP1;ratioP1;P1;durP2;ratioP2;P2;SDS_P1;SDS_P2;PMS_P1;PMS_P2;Temp;Humidity;BMP_temperature;BMP_pressure;BME280_temperature;BME280_humidity;BME280_pressure;Samples;Min_cycle;Max_cycle;Signal;HPM_P1;HPM_P2
2022/03/19 00:00:40;;;;;;;;;;;5.00;99.90;;;;;;5052974;28;19923;-82
2022/03/19 00:03:05;;;;;;;;;;;5.00;99.90;;;;;;5071772;28;20263;-81
2022/03/19 00:05:31;;;;;;;;;;;4.90;99.90;;;;;;5052213;28;20035;-82
2022/03/19 00:07:57;;;;;;;;;;;5.00;99.90;;;;;;5053965;28;20208;-82
2022/03/19 00:10:24;;;;;;;;;;;5.00;99.90;;;;;;5052531;28;19923;-82
2022/03/19 00:12:50;;;;;;;;;;;4.90;99.90;;;;;;5053117;28;20258;-82
2022/03/19 00:15:19;;;;;;;;;;;4.90;99.90;;;;;;5064556;28;20011;-82
2022/03/19 00:17:45;;;;;;;;;;;4.90;99.90;;;;;;5046458;28;19917;-82
2022/03/19 00:20:11;;;;;;;;;;;4.90;99.90;;;;;;5055776;28;19939;-82
2022/03/19 00:22:37;;;;;;;;;;;4.90;99.90;;;;;;5065851;28;19943;-82
2022/03/19 00:25:03;;;;;;;;;;;4.90;99.90;;;;;;5072027;28;19934;-82
2022/03/19 00:27:28;;;;;;;;;;;4.90;99.90;;;;;;5070830;28;19921;-82
2022/03/19 00:29:54;;;;;;;;;;;4.80;99.90;;;;;;5071235;28;19973;-82
2022/03/19 00:32:19;;;;;;;;;;;4.90;99.90;;;;;;5054638;28;19927;-82
2022/03/19 00:34:45;;;;;;;;;;;4.90;99.90;;;;;;5052608;28;19920;-82
2022/03/19 00:37:10;;;;;;;;;;;4.90;99.90;;;;;;5071677;28;19912;-82
2022/03/19 00:39:36;;;;;;;;;;;4.90;99.90;;;;;;5054928;28;19916;-82
2022/03/19 00:42:01;;;;;;;;;;;4.90;99.90;;;;;;5051994;28;20350;-82
2022/03/19 00:44:27;;;;;;;;;;;4.90;99.90;;;;;;5071848;28;19923;-82
2022/03/19 00:46:52;;;;;;;;;;;4.90;99.90;;;;;;5048525;28;19920;-82
2022/03/19 00:49:18;;;;;;;;;;;4.80;99.90;;;;;;5071273;28;19924;-82
2022/03/19 00:51:43;;;;;;;;;;;4.80;99.90;;;;;;5065830;28;19919;-82
2022/03/19 00:54:12;;;;;;;;;;;4.70;99.90;;;;;;5070912;28;19916;-82
2022/03/19 00:56:38;;;;;;;;;;;4.70;99.90;;;;;;5052075;28;19987;-82
2022/03/19 00:59:04;;;;;;;;;;;4.70;99.90;;;;;;5072263;28;19917;-82
2022/03/19 01:01:29;;;;;;;;;;;4.60;99.90;;;;;;5052743;28;19921;-82
2022/03/19 01:03:55;;;;;;;;;;;4.60;99.90;;;;;;5050680;28;19916;-82
2022/03/19 01:06:20;;;;;;;;;;;4.60;99.90;;;;;;5052929;28;20383;-82
2022/03/19 01:08:46;;;;;;;;;;;4.60;99.90;;;;;;5050907;28;20393;-82
2022/03/19 01:11:12;;;;;;;;;;;4.50;99.90;;;;;;5048598;28;19916;-82
2022/03/19 01:13:37;;;;;;;;;;;4.50;99.90;;;;;;5071233;28;20283;-83
2022/03/19 01:16:03;;;;;;;;;;;4.50;99.90;;;;;;5050523;28;19916;-82
2022/03/19 01:18:29;;;;;;;;;;;4.50;99.90;;;;;;5070725;28;19963;-82
2022/03/19 01:20:55;;;;;;;;;;;4.50;99.90;;;;;;5071028;28;20379;-82
2022/03/19 01:23:20;;;;;;;;;;;4.50;99.90;;;;;;5070910;28;20375;-82
2022/03/19 01:25:46;;;;;;;;;;;4.40;99.90;;;;;;5071390;28;20019;-82
2022/03/19 01:28:11;;;;;;;;;;;4.40;99.90;;;;;;5054290;28;19928;-82
2022/03/19 01:30:37;;;;;;;;;;;4.40;99.90;;;;;;5071167;28;19912;-82
2022/03/19 01:33:02;;;;;;;;;;;4.40;99.90;;;;;;5070913;28;19916;-82
2022/03/19 01:35:28;;;;;;;;;;;4.30;99.90;;;;;;5070068;28;19916;-82
2022/03/19 01:37:53;;;;;;;;;;;4.30;99.90;;;;;;5071191;28;20107;-82
2022/03/19 01:40:19;;;;;;;;;;;4.30;99.90;;;;;;5070065;28;19920;-82
2022/03/19 01:42:46;;;;;;;;;;;4.30;99.90;;;;;;5070413;28;20363;-82
2022/03/19 01:45:16;;;;;;;;;;;4.30;99.90;;;;;;5066999;28;19912;-82
2022/03/19 01:47:42;;;;;;;;;;;4.30;99.90;;;;;;5052588;28;20342;-82
2022/03/19 01:50:08;;;;;;;;;;;4.30;99.90;;;;;;5054983;28;19928;-82
2022/03/19 01:52:34;;;;;;;;;;;4.30;99.90;;;;;;5071615;28;20015;-82
2022/03/19 01:55:00;;;;;;;;;;;4.30;99.90;;;;;;5054322;28;20419;-82
2022/03/19 01:57:27;;;;;;;;;;;4.30;99.90;;;;;;5071647;28;19913;-82
2022/03/19 01:59:53;;;;;;;;;;;4.30;99.90;;;;;;5054158;28;20011;-82
2022/03/19 02:02:19;;;;;;;;;;;4.20;99.90;;;;;;5054759;28;19935;-82
2022/03/19 02:04:45;;;;;;;;;;;4.20;99.90;;;;;;5052422;28;19917;-82
2022/03/19 02:07:11;;;;;;;;;;;4.20;99.90;;;;;;5068523;28;19970;-82
2022/03/19 02:09:37;;;;;;;;;;;4.20;99.90;;;;;;5074604;28;19959;-82
2022/03/19 02:12:03;;;;;;;;;;;4.20;99.90;;;;;;5073919;28;19919;-82
2022/03/19 02:14:29;;;;;;;;;;;4.20;99.90;;;;;;5074622;28;20007;-82
2022/03/19 02:16:55;;;;;;;;;;;4.10;99.90;;;;;;5057113;28;19932;-82
2022/03/19 02:19:20;;;;;;;;;;;4.10;99.90;;;;;;5074792;28;20386;-82
2022/03/19 02:21:48;;;;;;;;;;;4.10;99.90;;;;;;5057040;28;19924;-82
2022/03/19 02:26:59;;;;;;;;;;;4.10;99.90;;;;;;5074335;28;19974;-82
2022/03/19 02:29:24;;;;;;;;;;;4.10;99.90;;;;;;5054736;28;19917;-82
2022/03/19 02:31:52;;;;;;;;;;;4.10;99.90;;;;;;5056534;28;19923;-82
2022/03/19 02:34:18;;;;;;;;;;;4.00;99.90;;;;;;5057834;28;19916;-82
2022/03/19 02:36:44;;;;;;;;;;;4.00;99.90;;;;;;5055789;28;20075;-82
2022/03/19 02:39:10;;;;;;;;;;;4.00;99.90;;;;;;5073877;28;19923;-82
2022/03/19 02:41:40;;;;;;;;;;;4.00;99.90;;;;;;5072351;28;19925;-82
2022/03/19 02:44:05;;;;;;;;;;;4.00;99.90;;;;;;5068583;28;19923;-82
2022/03/19 02:46:38;;;;;;;;;;;4.00;99.90;;;;;;5056952;28;20294;-83
2022/03/19 02:49:04;;;;;;;;;;;4.00;99.90;;;;;;5067368;28;19916;-82
2022/03/19 02:51:31;;;;;;;;;;;3.90;99.90;;;;;;5054572;28;19921;-82
2022/03/19 02:53:57;;;;;;;;;;;3.90;99.90;;;;;;5073606;28;19919;-82
2022/03/19 02:56:22;;;;;;;;;;;3.90;99.90;;;;;;5053955;28;19917;-82
2022/03/19 02:58:48;;;;;;;;;;;3.90;99.90;;;;;;5057928;28;19973;-82
2022/03/19 03:01:13;;;;;;;;;;;3.80;99.90;;;;;;5046405;28;19920;-82
2022/03/19 03:03:41;;;;;;;;;;;3.90;99.90;;;;;;5071595;28;19916;-82
2022/03/19 03:06:06;;;;;;;;;;;3.90;99.90;;;;;;5057834;28;19924;-82
2022/03/19 03:08:32;;;;;;;;;;;3.80;99.90;;;;;;5054759;28;19921;-82
2022/03/19 03:10:58;;;;;;;;;;;3.80;99.90;;;;;;5052798;28;20359;-82
2022/03/19 03:13:24;;;;;;;;;;;3.70;99.90;;;;;;5054986;28;20011;-82
2022/03/19 03:15:50;;;;;;;;;;;3.70;99.90;;;;;;5049788;28;20403;-82
2022/03/19 03:18:15;;;;;;;;;;;3.70;99.90;;;;;;5058118;28;20340;-82
2022/03/19 03:20:41;;;;;;;;;;;3.70;99.90;;;;;;5073210;28;19912;-82
2022/03/19 03:23:06;;;;;;;;;;;3.70;99.90;;;;;;5058330;28;19920;-82
2022/03/19 03:25:32;;;;;;;;;;;3.60;99.90;;;;;;5057324;28;19926;-82
2022/03/19 03:27:58;;;;;;;;;;;3.60;99.90;;;;;;5054401;28;20258;-83
2022/03/19 03:30:23;;;;;;;;;;;3.60;99.90;;;;;;5072774;28;20008;-82
2022/03/19 03:32:49;;;;;;;;;;;3.60;99.90;;;;;;5073952;28;20458;-82
2022/03/19 03:35:15;;;;;;;;;;;3.50;99.90;;;;;;5056367;28;19917;-82
2022/03/19 03:37:40;;;;;;;;;;;3.60;99.90;;;;;;5070960;28;19917;-83
2022/03/19 03:40:07;;;;;;;;;;;3.50;99.90;;;;;;5074081;28;19912;-83
2022/03/19 03:42:33;;;;;;;;;;;3.50;99.90;;;;;;5074949;28;19924;-83
2022/03/19 03:44:58;;;;;;;;;;;3.50;99.90;;;;;;5075687;28;19988;-82
2022/03/19 03:47:25;;;;;;;;;;;3.50;99.90;;;;;;5057208;28;20602;-82
2022/03/19 03:49:53;;;;;;;;;;;3.50;99.90;;;;;;5075420;28;20003;-83
2022/03/19 03:52:19;;;;;;;;;;;3.40;99.90;;;;;;5054306;28;19943;-83
2022/03/19 03:54:45;;;;;;;;;;;3.40;99.90;;;;;;5058188;28;19916;-83
2022/03/19 03:57:11;;;;;;;;;;;3.40;99.90;;;;;;5074206;28;19938;-83
2022/03/19 03:59:36;;;;;;;;;;;3.40;99.90;;;;;;5075685;28;19917;-83
2022/03/19 04:02:02;;;;;;;;;;;3.40;99.90;;;;;;5074623;28;20007;-83
2022/03/19 04:04:27;;;;;;;;;;;3.40;99.90;;;;;;5075866;28;19924;-83
2022/03/19 04:06:53;;;;;;;;;;;3.40;99.90;;;;;;5054942;28;20239;-83
2022/03/19 04:09:19;;;;;;;;;;;3.40;99.90;;;;;;5070870;28;19917;-83
2022/03/19 04:11:44;;;;;;;;;;;3.40;99.90;;;;;;5059601;28;19921;-83
2022/03/19 04:14:10;;;;;;;;;;;3.40;99.90;;;;;;5061485;28;20376;-83
2022/03/19 04:16:37;;;;;;;;;;;3.40;99.90;;;;;;5077019;28;20250;-82
2022/03/19 04:19:03;;;;;;;;;;;3.50;99.90;;;;;;5073928;28;19916;-82
2022/03/19 04:21:28;;;;;;;;;;;3.50;99.90;;;;;;5071851;28;19913;-82
2022/03/19 04:23:54;;;;;;;;;;;3.40;99.90;;;;;;5070658;28;20375;-82
2022/03/19 04:26:19;;;;;;;;;;;3.50;99.90;;;;;;5055051;28;20469;-82
2022/03/19 04:28:45;;;;;;;;;;;3.40;99.90;;;;;;5054508;28;19956;-82
2022/03/19 04:31:10;;;;;;;;;;;3.40;99.90;;;;;;5055086;28;19920;-82
2022/03/19 04:33:36;;;;;;;;;;;3.40;99.90;;;;;;5054325;28;19927;-82
2022/03/19 04:38:46;;;;;;;;;;;3.40;99.90;;;;;;5071185;28;19997;-82
2022/03/19 04:41:12;;;;;;;;;;;3.30;99.90;;;;;;5056355;28;19952;-82
2022/03/19 04:43:37;;;;;;;;;;;3.40;99.90;;;;;;5055534;28;19916;-82
2022/03/19 04:46:03;;;;;;;;;;;3.30;99.90;;;;;;5054196;28;19952;-82
2022/03/19 04:48:30;;;;;;;;;;;3.30;99.90;;;;;;5065687;22;20008;-83
2022/03/19 04:50:56;;;;;;;;;;;3.30;99.90;;;;;;5078820;28;19927;-83
2022/03/19 04:53:23;;;;;;;;;;;3.20;99.90;;;;;;5085634;28;19912;-83
2022/03/19 04:55:49;;;;;;;;;;;3.20;99.90;;;;;;5052478;28;19923;-83
2022/03/19 04:58:15;;;;;;;;;;;3.20;99.90;;;;;;5062765;28;19917;-83
2022/03/19 05:00:41;;;;;;;;;;;3.30;99.90;;;;;;5073829;28;19959;-83
2022/03/19 05:03:07;;;;;;;;;;;3.20;99.90;;;;;;5076688;28;20370;-83
2022/03/19 05:05:33;;;;;;;;;;;3.20;99.90;;;;;;5073743;28;19916;-84
2022/03/19 05:07:59;;;;;;;;;;;3.20;99.90;;;;;;5093297;28;19928;-83
2022/03/19 05:13:09;;;;;;;;;;;3.20;99.90;;;;;;5079955;28;19919;-83
2022/03/19 05:15:35;;;;;;;;;;;3.20;99.90;;;;;;5059706;28;19924;-83
2022/03/19 05:18:01;;;;;;;;;;;3.20;99.90;;;;;;5070630;28;20034;-83
2022/03/19 05:20:26;;;;;;;;;;;3.20;99.90;;;;;;5070579;28;20184;-83
2022/03/19 05:22:52;;;;;;;;;;;3.20;99.90;;;;;;5070447;28;20007;-83
2022/03/19 05:25:18;;;;;;;;;;;3.20;99.90;;;;;;5071599;28;20543;-83
2022/03/19 05:27:43;;;;;;;;;;;3.20;99.90;;;;;;5070277;28;20383;-84
2022/03/19 05:30:09;;;;;;;;;;;3.10;99.90;;;;;;5054426;28;19962;-83
2022/03/19 05:32:35;;;;;;;;;;;3.10;99.90;;;;;;5071050;28;20370;-83
2022/03/19 05:35:01;;;;;;;;;;;3.10;99.90;;;;;;5055959;28;19948;-83
2022/03/19 05:37:27;;;;;;;;;;;3.20;99.90;;;;;;5086297;28;19924;-83
2022/03/19 05:39:55;;;;;;;;;;;3.20;99.90;;;;;;5047820;28;19921;-83
2022/03/19 05:42:21;;;;;;;;;;;3.20;99.90;;;;;;5055596;28;19917;-83
2022/03/19 05:44:47;;;;;;;;;;;3.20;99.90;;;;;;5054741;28;19924;-83
2022/03/19 05:47:13;;;;;;;;;;;3.20;99.90;;;;;;5070210;28;20402;-82
2022/03/19 05:49:40;;;;;;;;;;;3.20;99.90;;;;;;5054656;28;19920;-83
2022/03/19 05:52:05;;;;;;;;;;;3.30;99.90;;;;;;5055256;28;19927;-83
2022/03/19 05:54:31;;;;;;;;;;;3.30;99.90;;;;;;5070372;28;19920;-83
2022/03/19 05:56:57;;;;;;;;;;;3.30;99.90;;;;;;5067572;28;19920;-83
2022/03/19 05:59:22;;;;;;;;;;;3.40;99.90;;;;;;5071175;28;19917;-82
2022/03/19 06:01:48;;;;;;;;;;;3.40;99.90;;;;;;5066677;28;19916;-83
2022/03/19 06:04:15;;;;;;;;;;;3.40;99.90;;;;;;5058248;28;20336;-83
2022/03/19 06:06:41;;;;;;;;;;;3.40;99.90;;;;;;5070552;28;19931;-83
2022/03/19 06:09:06;;;;;;;;;;;3.40;99.90;;;;;;5066266;28;19916;-83
2022/03/19 06:11:32;;;;;;;;;;;3.50;99.90;;;;;;5074836;28;19920;-84
2022/03/19 06:13:58;;;;;;;;;;;3.50;99.90;;;;;;5082858;28;19934;-84
2022/03/19 06:16:23;;;;;;;;;;;3.50;99.90;;;;;;5082191;28;19962;-84
2022/03/19 06:18:52;;;;;;;;;;;3.60;99.90;;;;;;5095119;28;19908;-83
2022/03/19 06:21:18;;;;;;;;;;;3.60;99.90;;;;;;5094177;28;19917;-84
2022/03/19 06:23:47;;;;;;;;;;;3.70;99.90;;;;;;5068883;28;19917;-84
2022/03/19 06:26:13;;;;;;;;;;;3.70;99.90;;;;;;5068856;28;19912;-84
2022/03/19 06:28:39;;;;;;;;;;;3.70;99.90;;;;;;5067925;28;19913;-85
2022/03/19 06:31:04;;;;;;;;;;;3.80;99.90;;;;;;5068016;28;19917;-83
2022/03/19 06:33:30;;;;;;;;;;;3.80;99.90;;;;;;5067515;28;20003;-84
2022/03/19 06:38:40;;;;;;;;;;;3.90;99.90;;;;;;5070897;28;20000;-83
2022/03/19 06:41:05;;;;;;;;;;;3.90;99.90;;;;;;5069864;28;20023;-82
2022/03/19 06:43:31;;;;;;;;;;;4.00;99.90;;;;;;5070658;28;19982;-82
2022/03/19 06:46:00;;;;;;;;;;;4.10;99.90;;;;;;5067443;28;19920;-83
2022/03/19 06:48:30;;;;;;;;;;;4.10;99.90;;;;;;5061704;28;19963;-83
2022/03/19 06:50:56;;;;;;;;;;;4.20;99.90;;;;;;5071599;28;20306;-82
2022/03/19 06:53:22;;;;;;;;;;;4.20;99.90;;;;;;5065617;28;19921;-82
2022/03/19 06:55:48;;;;;;;;;;;4.30;99.90;;;;;;5072853;28;20684;-82
2022/03/19 06:58:14;;;;;;;;;;;4.30;99.90;;;;;;5074926;28;20362;-82
2022/03/19 07:00:41;;;;;;;;;;;4.40;99.90;;;;;;5071730;28;20286;-83
2022/03/19 07:03:07;;;;;;;;;;;4.50;99.90;;;;;;5074598;28;19919;-82
2022/03/19 07:05:32;;;;;;;;;;;4.50;99.90;;;;;;5059359;28;19988;-82
2022/03/19 07:07:58;;;;;;;;;;;4.60;99.90;;;;;;5076394;28;20301;-82
2022/03/19 07:10:24;;;;;;;;;;;4.70;99.90;;;;;;5078516;28;19923;-82
2022/03/19 07:12:51;;;;;;;;;;;4.80;99.90;;;;;;5067555;28;19920;-83
2022/03/19 07:15:17;;;;;;;;;;;4.80;99.90;;;;;;5079083;28;19969;-83
2022/03/19 07:17:43;;;;;;;;;;;4.90;99.90;;;;;;5076763;28;19912;-82
2022/03/19 07:20:10;;;;;;;;;;;5.00;99.90;;;;;;5075959;28;19931;-83
2022/03/19 07:22:45;;;;;;;;;;;5.10;99.90;;;;;;5073677;28;19995;-82
2022/03/19 07:25:11;;;;;;;;;;;5.10;99.90;;;;;;5077544;28;19927;-83
2022/03/19 07:27:37;;;;;;;;;;;5.20;99.90;;;;;;5078263;28;19921;-83
2022/03/19 07:30:02;;;;;;;;;;;5.30;99.90;;;;;;5080799;28;20394;-81
2022/03/19 07:32:28;;;;;;;;;;;5.40;99.90;;;;;;5080943;28;19920;-81
2022/03/19 07:34:54;;;;;;;;;;;5.40;99.90;;;;;;5069317;28;19916;-81
2022/03/19 07:37:19;;;;;;;;;;;5.50;99.90;;;;;;5065298;28;19977;-81
2022/03/19 07:39:45;;;;;;;;;;;5.50;99.90;;;;;;5074976;28;19944;-92
2022/03/19 07:42:11;;;;;;;;;;;5.50;99.90;;;;;;5067058;28;20336;-81
2022/03/19 07:44:36;;;;;;;;;;;5.70;99.90;;;;;;5074351;28;19917;-82
2022/03/19 07:47:02;;;;;;;;;;;5.70;99.90;;;;;;5066617;28;19935;-85
2022/03/19 07:49:27;;;;;;;;;;;5.80;99.90;;;;;;5084498;28;19931;-82
2022/03/19 07:51:55;;;;;;;;;;;5.80;99.90;;;;;;5057791;28;19917;-81
2022/03/19 07:54:27;;;;;;;;;;;5.90;99.90;;;;;;5057108;28;19920;-83
2022/03/19 07:56:53;;;;;;;;;;;6.00;99.90;;;;;;5073106;28;19919;-81
2022/03/19 07:59:20;;;;;;;;;;;6.10;99.70;;;;;;5068212;28;20290;-81
2022/03/19 08:01:48;;;;;;;;;;;6.10;99.80;;;;;;5058070;28;19924;-80
2022/03/19 08:04:13;;;;;;;;;;;6.20;99.90;;;;;;5061256;28;19917;-83
2022/03/19 08:06:39;;;;;;;;;;;6.20;99.90;;;;;;5054644;28;19931;-82
2022/03/19 08:09:05;;;;;;;;;;;6.30;99.70;;;;;;5072611;28;20397;-83
2022/03/19 08:11:31;;;;;;;;;;;6.40;98.60;;;;;;5050755;28;19959;-81
2022/03/19 08:13:57;;;;;;;;;;;6.50;99.10;;;;;;5053011;28;20259;-81
2022/03/19 08:16:24;;;;;;;;;;;6.60;98.10;;;;;;5070329;28;19921;-80
2022/03/19 08:18:49;;;;;;;;;;;6.60;97.90;;;;;;5053742;28;19917;-82
2022/03/19 08:21:15;;;;;;;;;;;6.70;97.90;;;;;;5061700;28;20409;-81
2022/03/19 08:23:41;;;;;;;;;;;6.70;98.20;;;;;;5055590;28;19924;-81
2022/03/19 08:26:06;;;;;;;;;;;6.80;97.90;;;;;;5054093;28;19917;-82
2022/03/19 08:28:32;;;;;;;;;;;6.80;97.60;;;;;;5064810;28;19924;-81
2022/03/19 08:30:58;;;;;;;;;;;6.90;97.90;;;;;;5065787;28;19917;-81
2022/03/19 08:33:25;;;;;;;;;;;6.90;98.10;;;;;;5071680;28;20023;-82
2022/03/19 08:35:50;;;;;;;;;;;7.10;97.50;;;;;;5070962;28;19969;-82
2022/03/19 08:41:00;;;;;;;;;;;7.20;97.00;;;;;;5079869;28;19924;-81
2022/03/19 08:43:26;;;;;;;;;;;7.30;95.70;;;;;;5072783;28;19912;-81
2022/03/19 08:45:51;;;;;;;;;;;7.30;96.10;;;;;;5066254;28;19916;-81
2022/03/19 08:48:20;;;;;;;;;;;7.40;94.60;;;;;;5060352;28;19927;-81
2022/03/19 08:50:46;;;;;;;;;;;7.40;95.40;;;;;;5074369;28;19920;-82
2022/03/19 08:53:15;;;;;;;;;;;7.50;97.40;;;;;;5075662;28;19913;-83
2022/03/19 08:55:41;;;;;;;;;;;7.60;95.60;;;;;;5095498;28;19916;-81
2022/03/19 08:58:07;;;;;;;;;;;7.60;92.70;;;;;;5074808;28;20260;-81
2022/03/19 09:00:32;;;;;;;;;;;7.70;94.60;;;;;;5067475;28;19942;-82
2022/03/19 09:02:58;;;;;;;;;;;7.70;93.70;;;;;;5058419;28;19923;-81
2022/03/19 09:05:24;;;;;;;;;;;7.80;94.60;;;;;;5060161;28;19916;-81
2022/03/19 09:07:50;;;;;;;;;;;7.90;93.10;;;;;;5074643;28;19917;-85
2022/03/19 09:10:15;;;;;;;;;;;8.00;92.30;;;;;;5075379;28;19913;-93
2022/03/19 09:12:41;;;;;;;;;;;8.00;91.70;;;;;;5059276;28;19960;-92
2022/03/19 09:15:08;;;;;;;;;;;8.10;91.80;;;;;;5071730;28;19913;-93
2022/03/19 09:17:33;;;;;;;;;;;8.20;92.20;;;;;;5055673;28;19980;-81
2022/03/19 09:19:59;;;;;;;;;;;8.20;90.00;;;;;;5072861;28;20001;-81
2022/03/19 09:22:25;;;;;;;;;;;8.20;88.10;;;;;;5075463;28;19916;-81
2022/03/19 09:24:50;;;;;;;;;;;8.20;90.10;;;;;;5058253;28;20459;-81
2022/03/19 09:27:16;;;;;;;;;;;8.20;88.10;;;;;;5069409;28;19955;-83
2022/03/19 09:29:42;;;;;;;;;;;8.20;85.80;;;;;;5076670;28;19919;-81
2022/03/19 09:32:09;;;;;;;;;;;8.20;85.90;;;;;;5078506;28;19912;-84
2022/03/19 09:34:35;;;;;;;;;;;8.20;88.40;;;;;;5078982;28;19912;-83
2022/03/19 09:37:01;;;;;;;;;;;8.30;86.70;;;;;;5079651;28;19969;-85
2022/03/19 09:39:27;;;;;;;;;;;8.40;87.60;;;;;;5061639;28;19924;-83
2022/03/19 09:41:53;;;;;;;;;;;8.40;83.10;;;;;;5079674;28;19926;-85
2022/03/19 09:44:23;;;;;;;;;;;8.40;80.70;;;;;;5080898;28;19912;-83
2022/03/19 09:46:49;;;;;;;;;;;8.40;85.70;;;;;;5078298;28;19976;-83
2022/03/19 09:49:15;;;;;;;;;;;8.50;85.80;;;;;;5081177;28;19964;-84
2022/03/19 09:51:40;;;;;;;;;;;8.50;83.50;;;;;;5080904;28;20108;-85
2022/03/19 09:54:08;;;;;;;;;;;8.60;83.40;;;;;;5075215;28;19916;-83
2022/03/19 09:56:36;;;;;;;;;;;8.60;85.50;;;;;;5080094;28;19935;-84
2022/03/19 09:59:01;;;;;;;;;;;8.60;87.40;;;;;;5068993;28;19929;-83
2022/03/19 10:01:30;;;;;;;;;;;8.80;86.20;;;;;;5060120;28;19920;-84
2022/03/19 10:03:59;;;;;;;;;;;8.80;78.70;;;;;;5076198;28;19916;-82
2022/03/19 10:09:16;;;;;;;;;;;9.00;85.10;;;;;;5084513;28;19939;-83
2022/03/19 10:11:46;;;;;;;;;;;9.10;85.60;;;;;;5078965;28;19912;-83
2022/03/19 10:14:12;;;;;;;;;;;9.20;79.90;;;;;;5079257;28;19919;-83
2022/03/19 10:16:38;;;;;;;;;;;9.30;79.90;;;;;;5068551;28;20365;-82
2022/03/19 10:19:04;;;;;;;;;;;9.40;78.60;;;;;;5065771;28;19963;-83
2022/03/19 10:21:34;;;;;;;;;;;9.50;75.90;;;;;;5078526;28;19924;-85
2022/03/19 10:24:01;;;;;;;;;;;9.60;72.90;;;;;;5080176;28;19916;-83
2022/03/19 10:26:28;;;;;;;;;;;9.60;71.70;;;;;;5069400;28;20003;-83
2022/03/19 10:29:02;;;;;;;;;;;9.70;69.50;;;;;;5069708;28;19912;-84
2022/03/19 10:31:35;;;;;;;;;;;9.70;73.40;;;;;;5069365;28;19913;-84
2022/03/19 10:34:02;;;;;;;;;;;9.80;67.90;;;;;;5070643;28;19916;-83
2022/03/19 10:36:37;;;;;;;;;;;9.80;62.30;;;;;;5073485;28;19919;-84
2022/03/19 10:39:17;;;;;;;;;;;9.80;62.50;;;;;;5072524;28;19958;-84
2022/03/19 10:41:43;;;;;;;;;;;9.80;60.50;;;;;;5073180;28;20643;-83
2022/03/19 10:44:14;;;;;;;;;;;9.80;60.10;;;;;;5073250;28;19919;-82
2022/03/19 10:46:46;;;;;;;;;;;9.80;62.10;;;;;;5057316;28;20390;-83
2022/03/19 10:49:13;;;;;;;;;;;9.80;59.50;;;;;;5072409;28;20395;-84
2022/03/19 10:51:40;;;;;;;;;;;9.90;62.40;;;;;;5071808;28;19913;-84
2022/03/19 10:54:06;;;;;;;;;;;10.00;57.90;;;;;;5071638;28;20434;-83
2022/03/19 10:56:32;;;;;;;;;;;9.90;58.50;;;;;;5071728;28;19944;-84
2022/03/19 10:58:57;;;;;;;;;;;10.00;57.90;;;;;;5072164;28;19913;-83
2022/03/19 11:01:23;;;;;;;;;;;10.10;58.10;;;;;;5069057;28;19916;-83
2022/03/19 11:03:49;;;;;;;;;;;10.20;58.20;;;;;;5071947;28;19927;-82
2022/03/19 11:06:15;;;;;;;;;;;10.30;58.30;;;;;;5072053;28;19913;-82
2022/03/19 11:08:43;;;;;;;;;;;10.30;54.60;;;;;;5071694;28;20015;-83
2022/03/19 11:11:18;;;;;;;;;;;10.30;56.70;;;;;;5072476;28;19916;-83
2022/03/19 11:13:49;;;;;;;;;;;10.30;54.90;;;;;;5087495;28;19973;-83
2022/03/19 11:16:15;;;;;;;;;;;10.30;53.70;;;;;;5072833;28;19924;-82
2022/03/19 11:18:41;;;;;;;;;;;10.30;52.00;;;;;;5071264;28;19948;-82
2022/03/19 11:21:09;;;;;;;;;;;10.30;55.40;;;;;;5072730;28;19923;-82
2022/03/19 11:23:41;;;;;;;;;;;10.40;55.70;;;;;;5071606;28;20278;-83
2022/03/19 11:26:10;;;;;;;;;;;10.50;54.10;;;;;;5071215;28;20007;-83
2022/03/19 11:28:36;;;;;;;;;;;10.60;53.60;;;;;;5070866;28;19916;-83
2022/03/19 11:31:10;;;;;;;;;;;10.70;53.80;;;;;;5057860;28;20287;-83
2022/03/19 11:33:37;;;;;;;;;;;10.70;54.90;;;;;;5068557;28;19964;-83
2022/03/19 11:36:07;;;;;;;;;;;10.80;53.40;;;;;;5067459;28;19962;-82
2022/03/19 11:38:37;;;;;;;;;;;10.80;54.30;;;;;;5047209;28;20337;-82
2022/03/19 11:41:16;;;;;;;;;;;10.80;51.40;;;;;;5070429;28;19934;-83
2022/03/19 11:43:42;;;;;;;;;;;10.80;52.20;;;;;;5080840;28;19919;-83
2022/03/19 11:46:12;;;;;;;;;;;10.90;53.40;;;;;;5071496;28;19916;-84
2022/03/19 11:48:46;;;;;;;;;;;11.00;53.50;;;;;;5062004;28;20003;-84
2022/03/19 11:51:19;;;;;;;;;;;11.00;52.40;;;;;;5070914;28;20390;-85
2022/03/19 11:54:03;;;;;;;;;;;11.00;52.70;;;;;;5055910;28;19952;-84
2022/03/19 11:56:38;;;;;;;;;;;11.00;53.90;;;;;;5071063;28;19919;-84
2022/03/19 11:59:06;;;;;;;;;;;11.10;53.40;;;;;;5061629;28;20268;-84
2022/03/19 12:01:54;;;;;;;;;;;11.10;53.00;;;;;;5051319;28;19973;-84
2022/03/19 12:04:21;;;;;;;;;;;11.00;51.40;;;;;;5062877;28;19960;-84
2022/03/19 12:06:57;;;;;;;;;;;10.90;51.80;;;;;;5069087;28;20390;-84
2022/03/19 12:09:41;;;;;;;;;;;10.90;50.50;;;;;;5071117;28;20333;-84
2022/03/19 12:12:08;;;;;;;;;;;10.80;50.80;;;;;;5070930;28;19939;-84
2022/03/19 12:14:34;;;;;;;;;;;10.80;49.60;;;;;;5070739;28;19913;-84
2022/03/19 12:17:23;;;;;;;;;;;10.80;49.50;;;;;;5070254;28;19916;-84
2022/03/19 12:20:00;;;;;;;;;;;10.90;51.40;;;;;;5067167;28;19917;-84
2022/03/19 12:22:26;;;;;;;;;;;11.00;50.70;;;;;;5082324;28;19912;-84
2022/03/19 12:24:55;;;;;;;;;;;11.00;50.00;;;;;;5069967;28;20421;-84
2022/03/19 12:27:21;;;;;;;;;;;11.00;49.00;;;;;;5069153;28;20161;-84
2022/03/19 12:29:46;;;;;;;;;;;11.00;49.30;;;;;;5070552;28;19913;-83
2022/03/19 12:32:12;;;;;;;;;;;11.10;48.60;;;;;;5070515;28;19921;-84
2022/03/19 12:34:39;;;;;;;;;;;11.10;48.50;;;;;;5070410;28;19919;-84
2022/03/19 12:37:04;;;;;;;;;;;11.10;49.40;;;;;;5070345;28;19912;-84
2022/03/19 12:39:30;;;;;;;;;;;11.00;48.30;;;;;;5072194;28;19947;-85
2022/03/19 12:41:56;;;;;;;;;;;11.00;48.20;;;;;;5073117;28;19958;-85
2022/03/19 12:44:22;;;;;;;;;;;10.90;49.00;;;;;;5074006;28;19912;-84
2022/03/19 12:46:52;;;;;;;;;;;11.00;48.50;;;;;;5073490;28;19999;-85
2022/03/19 12:49:18;;;;;;;;;;;11.10;48.70;;;;;;5073246;28;19920;-85
2022/03/19 12:51:48;;;;;;;;;;;11.20;46.20;;;;;;5074190;28;19977;-84
2022/03/19 12:54:22;;;;;;;;;;;11.20;46.50;;;;;;5073503;28;20394;-85
2022/03/19 12:56:49;;;;;;;;;;;11.30;46.50;;;;;;5074586;28;19979;-85
2022/03/19 12:59:24;;;;;;;;;;;11.30;45.00;;;;;;5073940;28;19915;-84
2022/03/19 13:01:50;;;;;;;;;;;11.40;45.80;;;;;;5073175;28;19909;-85
2022/03/19 13:04:20;;;;;;;;;;;11.40;45.50;;;;;;5072898;28;19912;-84
2022/03/19 13:06:46;;;;;;;;;;;11.30;44.60;;;;;;5072210;28;19995;-84
2022/03/19 13:09:11;;;;;;;;;;;11.30;44.70;;;;;;5072835;28;19958;-85
2022/03/19 13:11:41;;;;;;;;;;;11.50;45.50;;;;;;5073499;28;19912;-84
2022/03/19 13:14:07;;;;;;;;;;;11.50;45.80;;;;;;5073412;28;20158;-85
2022/03/19 13:16:32;;;;;;;;;;;11.60;45.80;;;;;;5073599;28;19908;-85
2022/03/19 13:19:02;;;;;;;;;;;11.70;47.20;;;;;;5073732;28;19913;-85
2022/03/19 13:21:29;;;;;;;;;;;11.70;48.10;;;;;;5073668;28;19908;-85
2022/03/19 13:23:56;;;;;;;;;;;11.80;49.20;;;;;;5074660;28;19915;-85
2022/03/19 13:26:21;;;;;;;;;;;11.80;48.90;;;;;;5074390;28;19917;-85
2022/03/19 13:29:01;;;;;;;;;;;11.60;48.60;;;;;;5074455;28;19927;-84
2022/03/19 13:31:26;;;;;;;;;;;11.50;49.10;;;;;;5066264;28;19913;-80
2022/03/19 13:33:58;;;;;;;;;;;11.50;51.70;;;;;;5076505;28;19963;-83
2022/03/19 13:36:25;;;;;;;;;;;11.50;51.60;;;;;;5052010;28;19909;-84
2022/03/19 13:38:54;;;;;;;;;;;11.70;51.20;;;;;;5065087;28;19916;-85
2022/03/19 13:41:20;;;;;;;;;;;11.60;50.90;;;;;;5051772;28;19924;-84
2022/03/19 13:43:46;;;;;;;;;;;11.60;50.90;;;;;;5069688;28;19908;-82
2022/03/19 13:46:15;;;;;;;;;;;11.50;51.60;;;;;;5052602;28;19954;-82
2022/03/19 13:48:41;;;;;;;;;;;11.30;49.50;;;;;;5069222;28;19970;-82
2022/03/19 13:51:07;;;;;;;;;;;11.30;49.90;;;;;;5068899;28;19921;-83
2022/03/19 13:53:46;;;;;;;;;;;11.40;49.00;;;;;;5052764;28;19919;-83
2022/03/19 13:56:12;;;;;;;;;;;11.40;51.10;;;;;;5068851;28;19927;-82
2022/03/19 13:58:39;;;;;;;;;;;11.40;51.30;;;;;;5069607;28;19940;-83
2022/03/19 14:01:14;;;;;;;;;;;11.50;51.00;;;;;;5069577;28;19908;-83
2022/03/19 14:03:40;;;;;;;;;;;11.30;49.20;;;;;;5069919;28;20291;-83
2022/03/19 14:06:07;;;;;;;;;;;11.10;49.40;;;;;;5056223;28;19951;-83
2022/03/19 14:08:32;;;;;;;;;;;10.90;49.30;;;;;;5056436;28;19954;-82
2022/03/19 14:10:58;;;;;;;;;;;10.70;49.80;;;;;;5073418;28;19959;-83
2022/03/19 14:13:43;;;;;;;;;;;10.70;50.50;;;;;;5056078;28;19963;-83
2022/03/19 14:16:10;;;;;;;;;;;10.70;50.60;;;;;;5057011;28;19912;-83
2022/03/19 14:18:36;;;;;;;;;;;10.80;49.40;;;;;;5069942;28;19909;-83
2022/03/19 14:21:05;;;;;;;;;;;10.90;49.50;;;;;;5037155;28;20268;-83
2022/03/19 14:23:32;;;;;;;;;;;10.90;47.30;;;;;;5055242;28;20306;-83
2022/03/19 14:25:58;;;;;;;;;;;10.90;49.00;;;;;;5056178;28;20186;-83
2022/03/19 14:28:24;;;;;;;;;;;10.70;50.10;;;;;;5072635;28;20363;-83
2022/03/19 14:30:50;;;;;;;;;;;10.50;48.20;;;;;;5072636;28;19939;-83
2022/03/19 14:33:16;;;;;;;;;;;10.30;46.90;;;;;;5072944;28;20391;-83
2022/03/19 14:35:52;;;;;;;;;;;10.10;46.70;;;;;;5072691;28;19908;-82
2022/03/19 14:38:19;;;;;;;;;;;10.20;46.80;;;;;;5055227;28;20303;-83
2022/03/19 14:40:45;;;;;;;;;;;10.50;46.90;;;;;;5055709;28;19948;-82